createdAt,value
2018-02-08T00:00:12.346Z,96793
2018-02-08T00:02:41.280Z,96793
2018-02-08T00:05:09.463Z,96790
2018-02-08T00:07:37.652Z,96796
2018-02-08T00:10:05.818Z,96797
2018-02-08T00:12:33.992Z,96797
2018-02-08T00:15:02.170Z,96794
2018-02-08T00:17:30.347Z,96799
2018-02-08T00:19:58.542Z,96795
2018-02-08T00:22:44.590Z,96796
2018-02-08T00:25:12.772Z,96796
2018-02-08T00:27:40.957Z,96793
2018-02-08T00:30:09.127Z,96795
2018-02-08T00:32:37.297Z,96795
2018-02-08T00:35:05.482Z,96798
2018-02-08T00:37:33.647Z,96800
2018-02-08T00:40:01.815Z,96803
2018-02-08T00:42:29.988Z,96798
2018-02-08T00:44:58.158Z,96801
2018-02-08T00:47:26.341Z,96804
2018-02-08T00:49:54.522Z,96809
2018-02-08T00:52:22.696Z,96809
2018-02-08T00:54:50.881Z,96810
2018-02-08T00:57:19.081Z,96811
2018-02-08T00:59:47.251Z,96810
2018-02-08T01:02:15.435Z,96814
2018-02-08T01:04:43.606Z,96819
2018-02-08T01:07:11.775Z,96821
2018-02-08T01:09:39.950Z,96814
2018-02-08T01:12:08.140Z,96818
2018-02-08T01:14:37.078Z,96819
2018-02-08T01:17:05.231Z,96819
2018-02-08T01:19:33.411Z,96816
2018-02-08T01:22:01.587Z,96816
2018-02-08T01:24:29.749Z,96818
2018-02-08T01:26:57.918Z,96819
2018-02-08T01:29:26.865Z,96810
2018-02-08T01:31:55.032Z,96810
2018-02-08T01:34:23.217Z,96813
2018-02-08T01:36:51.391Z,96813
2018-02-08T01:39:19.575Z,96807
2018-02-08T01:41:47.752Z,96807
2018-02-08T01:44:15.928Z,96803
2018-02-08T01:46:44.090Z,96802
2018-02-08T01:49:12.282Z,96793
2018-02-08T01:51:40.465Z,96794
2018-02-08T01:54:09.408Z,96796
2018-02-08T01:56:37.567Z,96794
2018-02-08T01:59:05.762Z,96801
2018-02-08T02:01:33.927Z,96794
2018-02-08T02:04:02.097Z,96795
2018-02-08T02:06:30.286Z,96789
2018-02-08T02:08:58.482Z,96788
2018-02-08T02:11:26.652Z,96788
2018-02-08T02:13:54.829Z,96789
2018-02-08T02:16:22.999Z,96783
2018-02-08T02:18:51.173Z,96781
2018-02-08T02:21:19.341Z,96783
2018-02-08T02:23:47.517Z,96789
2018-02-08T02:26:15.704Z,96786
2018-02-08T02:28:43.919Z,96786
2018-02-08T02:31:12.854Z,96785
2018-02-08T02:33:41.031Z,96787
2018-02-08T02:36:09.197Z,96785
2018-02-08T02:38:37.365Z,96784
2018-02-08T02:41:05.564Z,96791
2018-02-08T02:43:33.765Z,96786
2018-02-08T02:46:01.940Z,96785
2018-02-08T02:48:30.895Z,96784
2018-02-08T02:50:59.055Z,96781
2018-02-08T02:53:27.228Z,96780
2018-02-08T02:55:55.422Z,96783
2018-02-08T02:58:23.592Z,96790
2018-02-08T03:00:51.791Z,96789
2018-02-08T03:03:19.977Z,96796
2018-02-08T03:05:48.143Z,96797
2018-02-08T03:08:16.322Z,96801
2018-02-08T03:10:44.494Z,96802
2018-02-08T03:13:12.671Z,96809
2018-02-08T03:15:40.846Z,96807
2018-02-08T03:18:09.032Z,96810
2018-02-08T03:20:37.970Z,96814
2018-02-08T03:23:06.163Z,96807
2018-02-08T03:25:34.364Z,96812
2018-02-08T03:28:02.556Z,96808
2018-02-08T03:30:33.837Z,96810
2018-02-08T03:33:02.029Z,96810
2018-02-08T03:35:30.190Z,96820
2018-02-08T03:37:58.360Z,96814
2018-02-08T03:40:26.541Z,96824
2018-02-08T03:42:54.735Z,96821
2018-02-08T03:45:22.901Z,96824
2018-02-08T03:47:51.092Z,96822
2018-02-08T03:50:19.259Z,96816
2018-02-08T03:52:47.425Z,96822
2018-02-08T03:55:15.616Z,96821
2018-02-08T03:57:43.793Z,96825
2018-02-08T04:00:11.959Z,96818
2018-02-08T04:02:40.131Z,96824
2018-02-08T04:05:08.296Z,96827
2018-02-08T04:07:36.470Z,96825
2018-02-08T04:10:04.642Z,96830
2018-02-08T04:12:32.845Z,96829
2018-02-08T04:15:01.031Z,96834
2018-02-08T04:17:29.217Z,96830
2018-02-08T04:19:58.160Z,96831
2018-02-08T04:22:26.336Z,96821
2018-02-08T04:24:54.502Z,96840
2018-02-08T04:27:22.705Z,96836
2018-02-08T04:29:50.901Z,96839
2018-02-08T04:32:19.068Z,96844
2018-02-08T04:34:47.257Z,96850
2018-02-08T04:37:16.198Z,96848
2018-02-08T04:40:02.170Z,96852
2018-02-08T04:45:50.977Z,96862
2018-02-08T04:48:19.156Z,96866
2018-02-08T04:50:47.329Z,96871
2018-02-08T04:53:15.589Z,96875
2018-02-08T04:55:43.767Z,96883
2018-02-08T04:58:11.947Z,96875
2018-02-08T05:00:40.114Z,96872
2018-02-08T05:03:08.301Z,96878
2018-02-08T05:05:36.466Z,96879
2018-02-08T05:08:04.652Z,96881
2018-02-08T05:10:32.848Z,96880
2018-02-08T05:13:01.018Z,96888
2018-02-08T05:15:29.195Z,96883
2018-02-08T05:17:57.394Z,96895
2018-02-08T05:20:26.350Z,96890
2018-02-08T05:22:54.531Z,96892
2018-02-08T05:25:22.709Z,96895
2018-02-08T05:27:50.896Z,96908
2018-02-08T05:30:19.119Z,96901
2018-02-08T05:32:47.288Z,96908
2018-02-08T05:35:15.464Z,96914
2018-02-08T05:37:43.643Z,96916
2018-02-08T05:40:11.805Z,96925
2018-02-08T05:42:39.983Z,96928
2018-02-08T05:45:08.158Z,96922
2018-02-08T05:47:36.324Z,96931
2018-02-08T05:50:04.500Z,96931
2018-02-08T05:52:32.695Z,96937
2018-02-08T05:55:00.868Z,96938
2018-02-08T05:57:29.045Z,96937
2018-02-08T05:59:57.223Z,96941
2018-02-08T06:02:25.407Z,96945
2018-02-08T06:04:53.576Z,96949
2018-02-08T06:07:21.763Z,96943
2018-02-08T06:09:49.943Z,96947
2018-02-08T06:12:18.106Z,96948
2018-02-08T06:14:46.266Z,96951
2018-02-08T06:17:14.435Z,96951
2018-02-08T06:19:42.623Z,96952
2018-02-08T06:22:10.804Z,96959
2018-02-08T06:24:38.975Z,96951
2018-02-08T06:27:07.158Z,96967
2018-02-08T06:29:35.329Z,96962
2018-02-08T06:32:03.510Z,96960
2018-02-08T06:34:31.685Z,96970
2018-02-08T06:36:59.849Z,96979
2018-02-08T06:39:28.023Z,96983
2018-02-08T06:41:56.224Z,96988
2018-02-08T06:44:24.417Z,96993
2018-02-08T06:46:53.377Z,96987
2018-02-08T06:49:21.555Z,96991
2018-02-08T06:51:49.759Z,96991
2018-02-08T06:54:18.719Z,96998
2018-02-08T06:56:46.909Z,97000
2018-02-08T06:59:15.097Z,96998
2018-02-08T07:01:43.283Z,96999
2018-02-08T07:04:12.252Z,96997
2018-02-08T07:06:40.443Z,96998
2018-02-08T07:09:09.415Z,97008
2018-02-08T07:11:37.601Z,97010
2018-02-08T07:14:05.829Z,97004
2018-02-08T07:16:34.033Z,97009
2018-02-08T07:19:02.231Z,97010
2018-02-08T07:21:30.437Z,97019
2018-02-08T07:23:58.670Z,97007
2018-02-08T07:26:26.899Z,97021
2018-02-08T07:28:55.106Z,97023
2018-02-08T07:31:23.363Z,97027
2018-02-08T07:33:51.589Z,97019
2018-02-08T07:36:19.802Z,97021
2018-02-08T07:38:48.045Z,97030
2018-02-08T07:41:17.019Z,97041
2018-02-08T07:43:45.214Z,97041
2018-02-08T07:46:14.191Z,97037
2018-02-08T07:48:42.395Z,97041
2018-02-08T07:51:11.355Z,97048
2018-02-08T07:53:39.576Z,97049
2018-02-08T07:56:07.803Z,97049
2018-02-08T07:58:36.060Z,97050
2018-02-08T08:01:04.274Z,97049
2018-02-08T08:03:33.269Z,97055
2018-02-08T08:06:02.261Z,97054
2018-02-08T08:08:30.447Z,97054
2018-02-08T08:10:59.399Z,97055
2018-02-08T08:13:27.604Z,97062
2018-02-08T08:15:55.824Z,97059
2018-02-08T08:18:24.007Z,97059
2018-02-08T08:20:52.215Z,97058
2018-02-08T08:23:20.402Z,97056
2018-02-08T08:25:49.417Z,97059
2018-02-08T08:28:18.366Z,97068
2018-02-08T08:30:46.544Z,97075
2018-02-08T08:33:14.757Z,97071
2018-02-08T08:35:43.697Z,97077
2018-02-08T08:38:11.879Z,97077
2018-02-08T08:40:40.079Z,97079
2018-02-08T08:43:08.273Z,97079
2018-02-08T08:45:37.233Z,97076
2018-02-08T08:48:05.420Z,97089
2018-02-08T08:50:33.660Z,97083
2018-02-08T08:53:01.866Z,97087
2018-02-08T08:55:30.071Z,97093
2018-02-08T08:57:59.062Z,97089
2018-02-08T09:00:28.027Z,97090
2018-02-08T09:02:56.207Z,97091
2018-02-08T09:05:24.386Z,97095
2018-02-08T09:07:52.562Z,97097
2018-02-08T09:10:20.756Z,97101
2018-02-08T09:12:49.726Z,97101
2018-02-08T09:15:17.900Z,97102
2018-02-08T09:17:46.071Z,97105
2018-02-08T09:20:14.252Z,97105
2018-02-08T09:22:42.417Z,97103
2018-02-08T09:25:10.602Z,97108
2018-02-08T09:27:47.276Z,97111
2018-02-08T09:30:15.466Z,97110
2018-02-08T09:32:44.426Z,97121
2018-02-08T09:35:12.591Z,97121
2018-02-08T09:37:40.771Z,97125
2018-02-08T09:40:08.969Z,97132
2018-02-08T09:42:39.055Z,97127
2018-02-08T09:45:07.400Z,97129
2018-02-08T09:47:35.576Z,97132
2018-02-08T09:50:03.773Z,97130
2018-02-08T09:52:31.954Z,97129
2018-02-08T09:55:00.148Z,97124
2018-02-08T09:57:28.311Z,97128
2018-02-08T09:59:57.245Z,97130
2018-02-08T10:02:26.193Z,97135
2018-02-08T10:04:54.362Z,97130
2018-02-08T10:07:22.530Z,97130
2018-02-08T10:09:50.744Z,97136
2018-02-08T10:12:18.924Z,97142
2018-02-08T10:14:47.092Z,97139
2018-02-08T10:17:15.268Z,97137
2018-02-08T10:19:43.462Z,97134
2018-02-08T10:22:12.392Z,97136
2018-02-08T10:24:40.555Z,97140
2018-02-08T10:27:08.718Z,97143
2018-02-08T10:29:36.881Z,97135
2018-02-08T10:32:05.827Z,97137
2018-02-08T10:34:33.990Z,97144
2018-02-08T10:37:02.214Z,97146
2018-02-08T10:39:31.194Z,97141
2018-02-08T10:41:59.387Z,97144
2018-02-08T10:44:28.339Z,97142
2018-02-08T10:46:56.510Z,97141
2018-02-08T10:49:24.692Z,97144
2018-02-08T10:51:52.870Z,97142
2018-02-08T10:54:21.034Z,97143
2018-02-08T10:56:49.224Z,97144
2018-02-08T10:59:17.410Z,97146
2018-02-08T11:01:45.577Z,97151
2018-02-08T11:04:13.757Z,97147
2018-02-08T11:06:41.943Z,97150
2018-02-08T11:09:10.883Z,97153
2018-02-08T11:11:39.051Z,97156
2018-02-08T11:14:07.219Z,97155
2018-02-08T11:16:35.398Z,97154
2018-02-08T11:19:03.614Z,97153
2018-02-08T11:21:31.793Z,97156
2018-02-08T11:24:00.776Z,97157
2018-02-08T11:26:28.953Z,97159
2018-02-08T11:28:57.121Z,97159
2018-02-08T11:31:25.324Z,97158
2018-02-08T11:33:54.271Z,97159
2018-02-08T11:36:22.450Z,97164
2018-02-08T11:38:50.640Z,97169
2018-02-08T11:41:18.829Z,97169
2018-02-08T11:43:47.001Z,97167
2018-02-08T11:46:15.170Z,97163
2018-02-08T11:48:43.357Z,97176
2018-02-08T11:51:11.549Z,97165
2018-02-08T11:53:40.486Z,97170
2018-02-08T11:56:08.662Z,97173
2018-02-08T11:58:36.860Z,97170
2018-02-08T12:01:05.028Z,97172
2018-02-08T12:03:33.195Z,97172
2018-02-08T12:06:01.388Z,97173
2018-02-08T12:08:29.571Z,97171
2018-02-08T12:10:57.736Z,97168
2018-02-08T12:13:25.910Z,97169
2018-02-08T12:15:54.091Z,97176
2018-02-08T12:18:22.274Z,97175
2018-02-08T12:20:50.458Z,97177
2018-02-08T12:23:19.392Z,97177
2018-02-08T12:25:47.550Z,97171
2018-02-08T12:28:15.714Z,97164
2018-02-08T12:30:43.890Z,97174
2018-02-08T12:33:12.076Z,97173
2018-02-08T12:35:40.237Z,97182
2018-02-08T12:38:08.414Z,97177
2018-02-08T12:40:36.579Z,97175
2018-02-08T12:43:05.535Z,97177
2018-02-08T12:45:33.701Z,97176
2018-02-08T12:48:01.878Z,97174
2018-02-08T12:50:30.075Z,97173
2018-02-08T12:52:58.254Z,97177
2018-02-08T12:55:27.189Z,97180
2018-02-08T12:57:55.349Z,97173
2018-02-08T13:00:23.549Z,97177
2018-02-08T13:02:51.733Z,97184
2018-02-08T13:05:19.900Z,97177
2018-02-08T13:07:48.070Z,97176
2018-02-08T13:10:16.225Z,97175
2018-02-08T13:12:44.381Z,97170
2018-02-08T13:15:12.561Z,97174
2018-02-08T13:17:40.725Z,97176
2018-02-08T13:20:09.662Z,97176
2018-02-08T13:22:37.824Z,97178
2018-02-08T13:25:06.009Z,97182
2018-02-08T13:27:34.175Z,97180
2018-02-08T13:30:02.353Z,97188
2018-02-08T13:32:30.541Z,97179
2018-02-08T13:34:58.709Z,97186
2018-02-08T13:37:26.899Z,97182
2018-02-08T13:39:56.641Z,97183
2018-02-08T13:42:25.602Z,97181
2018-02-08T13:44:53.773Z,97185
2018-02-08T13:47:27.507Z,97186
2018-02-08T13:53:01.645Z,97188
2018-02-08T13:55:38.150Z,97186
2018-02-08T13:58:09.827Z,97189
2018-02-08T14:00:41.427Z,97189
2018-02-08T14:03:09.628Z,97189
2018-02-08T14:05:37.807Z,97199
2018-02-08T14:08:05.977Z,97206
2018-02-08T14:10:34.144Z,97204
2018-02-08T14:13:03.091Z,97209
2018-02-08T14:15:31.326Z,97211
2018-02-08T14:17:59.508Z,97208
2018-02-08T14:20:27.702Z,97213
2018-02-08T14:22:55.870Z,97210
2018-02-08T14:25:24.047Z,97214
2018-02-08T14:27:52.224Z,97215
2018-02-08T14:30:20.401Z,97208
2018-02-08T14:32:48.565Z,97215
2018-02-08T14:35:16.744Z,97218
2018-02-08T14:37:44.922Z,97213
2018-02-08T14:40:13.098Z,97214
2018-02-08T14:42:41.262Z,97213
2018-02-08T14:45:09.428Z,97217
2018-02-08T14:47:37.642Z,97220
2018-02-08T14:50:05.802Z,97213
2018-02-08T14:52:33.975Z,97220
2018-02-08T14:55:02.146Z,97218
2018-02-08T14:57:30.326Z,97221
2018-02-08T14:59:58.540Z,97223
2018-02-08T15:02:27.499Z,97233
2018-02-08T15:04:55.684Z,97238
2018-02-08T15:07:23.841Z,97231
2018-02-08T15:09:52.034Z,97220
2018-02-08T15:12:20.298Z,97238
2018-02-08T15:14:48.515Z,97241
2018-02-08T15:17:17.468Z,97246
2018-02-08T15:19:45.660Z,97248
2018-02-08T15:22:13.851Z,97250
2018-02-08T15:24:42.806Z,97254
2018-02-08T15:27:10.991Z,97261
2018-02-08T15:29:39.194Z,97262
2018-02-08T15:32:08.184Z,97263
2018-02-08T15:34:36.386Z,97272
2018-02-08T15:37:04.570Z,97265
2018-02-08T15:39:32.770Z,97277
2018-02-08T15:42:00.944Z,97276
2018-02-08T15:44:29.120Z,97278
2018-02-08T15:46:57.311Z,97281
2018-02-08T15:49:25.504Z,97279
2018-02-08T15:51:53.680Z,97292
2018-02-08T15:54:21.857Z,97294
2018-02-08T15:56:50.809Z,97294
2018-02-08T15:59:19.738Z,97300
2018-02-08T16:01:47.926Z,97303
2018-02-08T16:04:16.870Z,97303
2018-02-08T16:06:45.041Z,97311
2018-02-08T16:09:13.217Z,97308
2018-02-08T16:11:41.414Z,97319
2018-02-08T16:14:09.611Z,97324
2018-02-08T16:16:38.552Z,97323
2018-02-08T16:19:06.820Z,97325
2018-02-08T16:21:35.030Z,97324
2018-02-08T16:24:03.489Z,97333
2018-02-08T16:26:31.671Z,97333
2018-02-08T16:28:59.966Z,97342
2018-02-08T16:31:28.982Z,97344
2018-02-08T16:33:58.024Z,97344
2018-02-08T16:36:26.349Z,97350
2018-02-08T16:38:54.543Z,97355
2018-02-08T16:41:23.492Z,97358
2018-02-08T16:43:51.674Z,97361
2018-02-08T16:46:20.049Z,97366
2018-02-08T16:48:48.245Z,97367
2018-02-08T16:51:16.441Z,97367
2018-02-08T16:53:45.407Z,97370
2018-02-08T16:56:13.593Z,97370
2018-02-08T18:20:40.266Z,97448
2018-02-08T18:23:08.530Z,97444
2018-02-08T18:25:36.702Z,97436
2018-02-08T18:28:04.892Z,97448
2018-02-08T18:30:33.065Z,97450
2018-02-08T18:33:01.252Z,97448
2018-02-08T18:35:29.576Z,97451
2018-02-08T18:37:57.767Z,97454
2018-02-08T18:40:25.952Z,97453
2018-02-08T18:42:54.120Z,97456
2018-02-08T18:45:22.318Z,97458
2018-02-08T18:47:50.496Z,97465
2018-02-08T18:50:18.699Z,97468
2018-02-08T18:52:47.379Z,97471
2018-02-08T18:55:15.569Z,97474
2018-02-08T18:57:44.567Z,97472
2018-02-08T19:00:13.524Z,97481
2018-02-08T19:02:41.702Z,97479
2018-02-08T19:05:09.903Z,97476
2018-02-08T19:07:38.854Z,97484
2018-02-08T19:10:07.034Z,97483
2018-02-08T19:12:35.211Z,97482
2018-02-08T19:15:03.400Z,97489
2018-02-08T19:17:31.588Z,97484
2018-02-08T19:20:00.544Z,97488
2018-02-08T19:22:28.723Z,97485
2018-02-08T19:24:56.928Z,97486
2018-02-08T19:27:25.127Z,97486
2018-02-08T19:29:53.302Z,97490
2018-02-08T19:32:21.474Z,97491
2018-02-08T19:34:50.413Z,97489
2018-02-08T19:37:18.673Z,97489
2018-02-08T19:39:46.840Z,97490
2018-02-08T19:42:15.082Z,97486
2018-02-08T19:44:44.056Z,97488
2018-02-08T19:47:12.292Z,97484
2018-02-08T19:49:40.512Z,97491
2018-02-08T19:52:08.709Z,97491
2018-02-08T19:54:37.650Z,97488
2018-02-08T19:57:05.856Z,97493
2018-02-08T19:59:34.050Z,97491
2018-02-08T20:02:03.116Z,97492
2018-02-08T20:04:31.339Z,97494
2018-02-08T20:06:59.548Z,97500
2018-02-08T20:09:27.756Z,97502
2018-02-08T20:11:55.944Z,97502
2018-02-08T20:14:38.778Z,97506
2018-02-08T20:17:06.966Z,97503
2018-02-08T20:19:35.131Z,97504
2018-02-08T20:22:03.303Z,97503
2018-02-08T20:24:31.510Z,97506
2018-02-08T20:26:59.696Z,97507
2018-02-08T20:29:27.884Z,97503
2018-02-08T20:31:56.134Z,97505
2018-02-08T20:34:24.298Z,97504
2018-02-08T20:36:52.570Z,97508
2018-02-08T20:39:20.767Z,97504
2018-02-08T20:41:49.236Z,97503
2018-02-08T20:44:17.445Z,97504
2018-02-08T20:46:45.651Z,97503
2018-02-08T20:49:14.600Z,97510
2018-02-08T20:51:42.826Z,97508
2018-02-08T20:54:11.106Z,97511
2018-02-08T20:56:39.291Z,97510
2018-02-08T20:59:07.479Z,97511
2018-02-08T21:01:35.645Z,97507
2018-02-08T21:04:03.809Z,97507
2018-02-08T21:06:32.015Z,97511
2018-02-08T21:09:02.814Z,97509
2018-02-08T21:11:31.030Z,97507
2018-02-08T21:13:59.283Z,97505
2018-02-08T21:16:27.449Z,97507
2018-02-08T21:18:55.649Z,97502
2018-02-08T21:21:23.825Z,97508
2018-02-08T21:23:51.994Z,97503
2018-02-08T21:26:20.185Z,97509
2018-02-08T21:28:48.396Z,97511
2018-02-08T21:31:17.351Z,97512
2018-02-08T21:33:45.541Z,97518
2018-02-08T21:36:13.722Z,97518
2018-02-08T21:38:41.886Z,97515
2018-02-08T21:41:10.075Z,97520
2018-02-08T21:43:38.262Z,97518
2018-02-08T21:46:07.205Z,97514
2018-02-08T21:48:35.382Z,97515
2018-02-08T21:51:03.599Z,97512
2018-02-08T21:53:32.575Z,97509
2018-02-08T21:56:00.738Z,97511
2018-02-08T21:58:28.943Z,97513
2018-02-08T22:00:57.890Z,97510
2018-02-08T22:03:26.062Z,97513
2018-02-08T22:05:54.229Z,97515
2018-02-08T22:08:22.423Z,97512
2018-02-08T22:10:50.595Z,97511
2018-02-08T22:13:18.762Z,97516
2018-02-08T22:15:46.974Z,97512
2018-02-08T22:18:15.157Z,97515
2018-02-08T22:20:44.123Z,97512
2018-02-08T22:23:13.049Z,97518
2018-02-08T22:25:42.019Z,97518
2018-02-08T22:28:10.200Z,97520
2018-02-08T22:30:38.368Z,97515
2018-02-08T22:33:06.546Z,97518
2018-02-08T22:35:35.546Z,97516
2018-02-08T22:38:03.708Z,97513
2018-02-08T22:40:31.883Z,97513
2018-02-08T22:43:00.067Z,97516
2018-02-08T22:45:28.260Z,97517
2018-02-08T22:47:57.204Z,97519
2018-02-08T22:50:25.385Z,97518
2018-02-08T22:52:53.570Z,97521
2018-02-08T22:55:21.765Z,97521
2018-02-08T22:57:50.714Z,97518
2018-02-08T23:00:18.920Z,97523
2018-02-08T23:02:47.238Z,97525
2018-02-08T23:05:15.434Z,97522
2018-02-08T23:07:43.606Z,97526
2018-02-08T23:10:11.782Z,97521
2018-02-08T23:12:39.956Z,97520
2018-02-08T23:15:08.144Z,97524
2018-02-08T23:17:36.328Z,97519
2018-02-08T23:20:04.510Z,97520
2018-02-08T23:22:32.694Z,97518
2018-02-08T23:25:00.881Z,97514
2018-02-08T23:27:29.055Z,97515
2018-02-08T23:29:57.218Z,97513
2018-02-08T23:32:25.391Z,97512
2018-02-08T23:34:53.571Z,97512
2018-02-08T23:37:21.757Z,97513
2018-02-08T23:39:50.699Z,97518
2018-02-08T23:42:18.878Z,97516
2018-02-08T23:44:47.062Z,97516
2018-02-08T23:47:15.229Z,97522
2018-02-08T23:49:43.397Z,97518
2018-02-08T23:52:11.553Z,97521
2018-02-08T23:54:39.741Z,97525
2018-02-08T23:57:07.901Z,97531
2018-02-08T23:59:36.069Z,97529
